Time;durP1;ratioP1;P1;durP2;ratioP2;P2;SDS_P1;SDS_P2;PMS_P1;PMS_P2;Temp;Humidity;BMP_temperature;BMP_pressure;BME280_temperature;BME280_humidity;BME280_pressure;Samples;Min_cycle;Max_cycle;Signal;HPM_P1;HPM_P2
2023/06/28 00:00:00;;;;;;;;;;;24.10;86.40;;;;;;5115938;28;20334;-51
2023/06/28 00:02:25;;;;;;;;;;;24.10;86.40;;;;;;5115808;28;19904;-50
2023/06/28 00:04:52;;;;;;;;;;;24.10;86.90;;;;;;5116139;28;19947;-51
2023/06/28 00:07:17;;;;;;;;;;;24.10;86.40;;;;;;5115395;28;20057;-53
2023/06/28 00:09:43;;;;;;;;;;;24.10;86.40;;;;;;5115423;28;20386;-51
2023/06/28 00:12:08;;;;;;;;;;;24.10;86.40;;;;;;5115370;28;20000;-53
2023/06/28 00:14:34;;;;;;;;;;;24.10;86.40;;;;;;5115330;28;19904;-52
2023/06/28 00:16:59;;;;;;;;;;;24.10;86.40;;;;;;5115525;28;20246;-50
2023/06/28 00:19:28;;;;;;;;;;;24.10;86.40;;;;;;5115565;28;19953;-51
2023/06/28 00:21:54;;;;;;;;;;;24.10;86.40;;;;;;5115492;28;20247;-50
2023/06/28 00:24:19;;;;;;;;;;;24.10;86.40;;;;;;5115405;28;19911;-53
2023/06/28 00:26:45;;;;;;;;;;;24.10;86.40;;;;;;5115261;28;19911;-50
2023/06/28 00:29:10;;;;;;;;;;;24.10;86.40;;;;;;5115242;28;19912;-53
2023/06/28 00:31:36;;;;;;;;;;;24.10;86.40;;;;;;5115334;28;19903;-52
2023/06/28 00:34:01;;;;;;;;;;;24.10;86.50;;;;;;5096985;28;19911;-49
2023/06/28 00:36:27;;;;;;;;;;;24.10;86.50;;;;;;5115217;28;20350;-50
2023/06/28 00:38:52;;;;;;;;;;;24.10;86.40;;;;;;5115144;28;19998;-50
2023/06/28 00:41:17;;;;;;;;;;;24.10;86.40;;;;;;5114808;28;19904;-51
2023/06/28 00:43:43;;;;;;;;;;;24.10;86.50;;;;;;5114729;28;20382;-53
2023/06/28 00:46:08;;;;;;;;;;;24.10;86.50;;;;;;5114739;28;19915;-52
2023/06/28 00:48:34;;;;;;;;;;;24.00;86.50;;;;;;5114339;28;20307;-49
2023/06/28 00:51:00;;;;;;;;;;;24.00;86.50;;;;;;5114610;28;19907;-51
2023/06/28 00:53:26;;;;;;;;;;;24.00;86.50;;;;;;5114929;28;19911;-54
2023/06/28 00:55:53;;;;;;;;;;;24.00;86.50;;;;;;5114673;28;19903;-53
2023/06/28 00:58:19;;;;;;;;;;;24.00;86.50;;;;;;5096912;28;19904;-50
2023/06/28 01:00:45;;;;;;;;;;;24.00;86.50;;;;;;5114496;28;19904;-54
2023/06/28 01:03:10;;;;;;;;;;;24.00;86.40;;;;;;5114615;28;19907;-48
2023/06/28 01:05:36;;;;;;;;;;;24.00;86.10;;;;;;5096613;28;19910;-52
2023/06/28 01:08:04;;;;;;;;;;;24.00;86.00;;;;;;5114686;28;19959;-51
2023/06/28 01:10:30;;;;;;;;;;;24.00;85.90;;;;;;5114426;28;19907;-51
2023/06/28 01:12:56;;;;;;;;;;;24.00;86.20;;;;;;5115005;28;19941;-53
2023/06/28 01:15:21;;;;;;;;;;;24.00;86.30;;;;;;5114948;28;19903;-51
2023/06/28 01:17:47;;;;;;;;;;;24.00;86.40;;;;;;5114289;28;20258;-50
2023/06/28 01:20:13;;;;;;;;;;;24.00;86.40;;;;;;5114604;28;19911;-50
2023/06/28 01:22:40;;;;;;;;;;;24.00;86.40;;;;;;5114621;28;19907;-51
2023/06/28 01:25:06;;;;;;;;;;;24.00;86.40;;;;;;5114577;28;19911;-51
2023/06/28 01:27:32;;;;;;;;;;;24.00;86.50;;;;;;5114460;28;20258;-50
2023/06/28 01:29:58;;;;;;;;;;;24.00;86.50;;;;;;5114236;28;19996;-53
2023/06/28 01:32:23;;;;;;;;;;;24.00;86.30;;;;;;5114490;28;19907;-50
2023/06/28 01:34:49;;;;;;;;;;;24.00;86.30;;;;;;5114854;28;20270;-50
2023/06/28 01:37:14;;;;;;;;;;;24.00;86.40;;;;;;5114524;28;19911;-49
2023/06/28 01:39:40;;;;;;;;;;;24.00;86.50;;;;;;5096436;28;20338;-53
2023/06/28 01:42:06;;;;;;;;;;;24.00;86.50;;;;;;5114148;28;19904;-54
2023/06/28 01:44:31;;;;;;;;;;;24.00;86.50;;;;;;5114488;28;19904;-51
2023/06/28 01:46:57;;;;;;;;;;;24.00;86.50;;;;;;5114208;28;19903;-50
2023/06/28 01:49:25;;;;;;;;;;;24.00;86.50;;;;;;5114027;28;19912;-50
2023/06/28 01:51:51;;;;;;;;;;;24.00;86.50;;;;;;5114302;28;19999;-53
2023/06/28 01:54:18;;;;;;;;;;;23.90;86.50;;;;;;5114028;28;19911;-49
2023/06/28 01:56:43;;;;;;;;;;;24.00;86.50;;;;;;5114377;28;19904;-53
2023/06/28 01:59:09;;;;;;;;;;;23.90;86.50;;;;;;5117337;28;20289;-51
2023/06/28 02:01:34;;;;;;;;;;;23.90;86.50;;;;;;5118020;28;19956;-52
2023/06/28 02:03:59;;;;;;;;;;;23.90;86.50;;;;;;5117855;28;19908;-50
2023/06/28 02:06:25;;;;;;;;;;;23.90;86.60;;;;;;5118176;28;19904;-50
2023/06/28 02:08:50;;;;;;;;;;;23.90;86.60;;;;;;5117755;28;19916;-52
2023/06/28 02:11:16;;;;;;;;;;;23.90;86.50;;;;;;5117902;28;19904;-53
2023/06/28 02:13:41;;;;;;;;;;;23.90;86.50;;;;;;5117783;28;20346;-53
2023/06/28 02:16:07;;;;;;;;;;;23.90;86.50;;;;;;5117905;28;19904;-53
2023/06/28 02:18:34;;;;;;;;;;;23.90;86.60;;;;;;5099248;28;19904;-52
2023/06/28 02:21:00;;;;;;;;;;;23.90;86.60;;;;;;5117787;28;20239;-49
2023/06/28 02:23:25;;;;;;;;;;;23.90;86.60;;;;;;5118149;28;19919;-53
2023/06/28 02:25:51;;;;;;;;;;;23.90;87.10;;;;;;5117767;28;20339;-52
2023/06/28 02:28:16;;;;;;;;;;;23.90;86.60;;;;;;5117719;28;20314;-51
2023/06/28 02:30:42;;;;;;;;;;;23.90;86.60;;;;;;5117380;28;19986;-49
2023/06/28 02:33:07;;;;;;;;;;;23.90;86.60;;;;;;5117282;28;19911;-54
2023/06/28 02:35:33;;;;;;;;;;;23.90;86.60;;;;;;5117295;28;19945;-50
2023/06/28 02:37:58;;;;;;;;;;;23.90;86.50;;;;;;5117539;28;19926;-51
2023/06/28 02:40:26;;;;;;;;;;;23.90;86.60;;;;;;5117449;28;20013;-50
2023/06/28 02:42:52;;;;;;;;;;;23.90;86.60;;;;;;5117444;28;19945;-50
2023/06/28 02:45:17;;;;;;;;;;;23.90;86.50;;;;;;5117519;28;20002;-51
2023/06/28 02:47:43;;;;;;;;;;;23.90;86.50;;;;;;5116804;28;19920;-50
2023/06/28 02:50:08;;;;;;;;;;;23.90;86.50;;;;;;5117363;28;19904;-53
2023/06/28 02:52:34;;;;;;;;;;;23.90;86.50;;;;;;5117603;28;19904;-52
2023/06/28 02:54:59;;;;;;;;;;;23.90;86.60;;;;;;5117200;28;20304;-51
2023/06/28 02:57:25;;;;;;;;;;;23.90;86.50;;;;;;5116940;28;19904;-51
2023/06/28 02:59:51;;;;;;;;;;;23.90;86.50;;;;;;5116812;28;19910;-52
2023/06/28 03:02:16;;;;;;;;;;;23.90;86.50;;;;;;5117002;28;19903;-50
2023/06/28 03:04:42;;;;;;;;;;;23.90;86.50;;;;;;5116639;28;19961;-50
2023/06/28 03:07:14;;;;;;;;;;;23.90;86.50;;;;;;5116663;28;19903;-51
2023/06/28 03:09:39;;;;;;;;;;;23.90;86.50;;;;;;5115401;28;19911;-50
2023/06/28 03:12:05;;;;;;;;;;;23.90;86.50;;;;;;5098357;28;20238;-50
2023/06/28 03:14:30;;;;;;;;;;;23.90;86.50;;;;;;5117071;28;19903;-51
2023/06/28 03:16:56;;;;;;;;;;;23.90;86.60;;;;;;5116511;28;19910;-53
2023/06/28 03:19:21;;;;;;;;;;;23.90;86.50;;;;;;5116506;28;19904;-49
2023/06/28 03:21:47;;;;;;;;;;;23.90;86.60;;;;;;5116718;28;20258;-51
2023/06/28 03:24:12;;;;;;;;;;;23.90;86.50;;;;;;5116315;28;19998;-51
2023/06/28 03:26:37;;;;;;;;;;;23.90;86.50;;;;;;5116249;28;19915;-53
2023/06/28 03:29:03;;;;;;;;;;;23.90;86.60;;;;;;5116141;28;20319;-50
2023/06/28 03:31:31;;;;;;;;;;;23.90;86.50;;;;;;5098129;28;19946;-50
2023/06/28 03:33:56;;;;;;;;;;;23.90;86.60;;;;;;5116024;28;20003;-52
2023/06/28 03:36:24;;;;;;;;;;;23.90;86.60;;;;;;5116332;28;19951;-50
2023/06/28 03:38:49;;;;;;;;;;;23.90;86.60;;;;;;5116542;28;19904;-51
2023/06/28 03:41:15;;;;;;;;;;;23.90;86.60;;;;;;5116319;28;19957;-49
2023/06/28 03:43:40;;;;;;;;;;;23.90;86.60;;;;;;5116181;28;19948;-50
2023/06/28 03:46:06;;;;;;;;;;;23.80;86.50;;;;;;5116185;28;19908;-52
2023/06/28 03:48:31;;;;;;;;;;;23.90;86.50;;;;;;5116103;28;19922;-52
2023/06/28 03:50:57;;;;;;;;;;;23.80;86.50;;;;;;5115843;28;19904;-50
2023/06/28 03:53:22;;;;;;;;;;;23.80;86.50;;;;;;5115725;28;19904;-51
2023/06/28 03:55:48;;;;;;;;;;;23.80;86.50;;;;;;5115981;28;19957;-50
2023/06/28 03:58:13;;;;;;;;;;;23.80;86.50;;;;;;5115904;28;19911;-51
2023/06/28 04:00:38;;;;;;;;;;;23.80;86.50;;;;;;5116247;28;20398;-50
2023/06/28 04:03:05;;;;;;;;;;;23.80;86.50;;;;;;5115590;28;19908;-50
2023/06/28 04:05:30;;;;;;;;;;;23.80;86.50;;;;;;5115630;28;19955;-51
2023/06/28 04:07:58;;;;;;;;;;;23.80;86.50;;;;;;5115640;28;19944;-53
2023/06/28 04:10:26;;;;;;;;;;;23.80;86.50;;;;;;5115646;28;19920;-54
2023/06/28 04:12:51;;;;;;;;;;;23.80;86.50;;;;;;5115550;28;19962;-54
2023/06/28 04:15:17;;;;;;;;;;;23.80;86.50;;;;;;5097511;28;19939;-54
2023/06/28 04:17:42;;;;;;;;;;;23.80;86.50;;;;;;5115547;28;19926;-50
2023/06/28 04:20:08;;;;;;;;;;;23.80;86.50;;;;;;5115049;28;20369;-54
2023/06/28 04:22:33;;;;;;;;;;;23.80;86.50;;;;;;5096937;28;19928;-50
2023/06/28 04:24:59;;;;;;;;;;;23.90;86.60;;;;;;5115658;28;19904;-52
2023/06/28 04:27:25;;;;;;;;;;;23.80;86.50;;;;;;5114955;28;19969;-48
2023/06/28 04:29:50;;;;;;;;;;;23.80;86.50;;;;;;5115604;28;19915;-50
2023/06/28 04:32:26;;;;;;;;;;;23.80;86.50;;;;;;5115042;28;19904;-53
2023/06/28 04:34:53;;;;;;;;;;;23.80;86.50;;;;;;5114879;28;19926;-51
2023/06/28 04:37:20;;;;;;;;;;;23.80;86.50;;;;;;5115046;28;19903;-51
2023/06/28 04:39:46;;;;;;;;;;;23.80;86.50;;;;;;5114709;28;19904;-52
2023/06/28 04:42:14;;;;;;;;;;;23.80;86.50;;;;;;5115391;28;19910;-54
2023/06/28 04:44:43;;;;;;;;;;;23.80;86.50;;;;;;5115337;28;19949;-50
2023/06/28 04:47:09;;;;;;;;;;;23.80;86.50;;;;;;5114393;28;19923;-52
2023/06/28 04:49:35;;;;;;;;;;;23.80;87.00;;;;;;5096527;28;19970;-52
2023/06/28 04:52:01;;;;;;;;;;;23.80;86.50;;;;;;5114737;28;19939;-52
2023/06/28 04:54:26;;;;;;;;;;;23.80;86.60;;;;;;5114476;28;20280;-48
2023/06/28 04:56:52;;;;;;;;;;;23.80;86.50;;;;;;5114804;28;20017;-50
2023/06/28 04:59:17;;;;;;;;;;;23.80;86.50;;;;;;5114717;28;20364;-49
2023/06/28 05:01:42;;;;;;;;;;;23.80;86.50;;;;;;5114212;28;20016;-50
2023/06/28 05:04:08;;;;;;;;;;;23.80;86.50;;;;;;5114679;28;19951;-49
2023/06/28 05:06:35;;;;;;;;;;;23.80;86.50;;;;;;5114344;28;19903;-49
2023/06/28 05:09:01;;;;;;;;;;;23.80;86.50;;;;;;5114557;28;19916;-49
2023/06/28 05:11:27;;;;;;;;;;;23.80;86.60;;;;;;5114918;28;19908;-52
2023/06/28 05:13:52;;;;;;;;;;;23.80;86.50;;;;;;5114262;28;20038;-53
2023/06/28 05:16:18;;;;;;;;;;;23.80;86.60;;;;;;5114489;28;19911;-49
2023/06/28 05:18:43;;;;;;;;;;;23.80;86.60;;;;;;5114199;28;20334;-52
2023/06/28 05:21:09;;;;;;;;;;;23.80;86.60;;;;;;5114464;28;19904;-50
2023/06/28 05:23:34;;;;;;;;;;;23.80;86.60;;;;;;5114159;28;19994;-52
2023/06/28 05:26:00;;;;;;;;;;;23.80;86.60;;;;;;5114325;28;19998;-52
2023/06/28 05:28:25;;;;;;;;;;;23.80;86.60;;;;;;5096186;28;20334;-51
2023/06/28 05:30:51;;;;;;;;;;;23.80;86.60;;;;;;5114271;28;19943;-53
2023/06/28 05:33:16;;;;;;;;;;;23.80;86.60;;;;;;5115676;28;19904;-51
2023/06/28 05:35:42;;;;;;;;;;;23.80;86.60;;;;;;5118123;28;19986;-54
2023/06/28 05:38:07;;;;;;;;;;;23.80;86.60;;;;;;5118210;28;19910;-50
2023/06/28 05:40:33;;;;;;;;;;;23.80;86.60;;;;;;5118172;28;19911;-52
2023/06/28 05:42:59;;;;;;;;;;;23.80;86.60;;;;;;5118272;28;19910;-49
2023/06/28 05:45:28;;;;;;;;;;;23.80;86.60;;;;;;5118142;28;19904;-52
2023/06/28 05:47:53;;;;;;;;;;;23.80;86.70;;;;;;5117753;28;19916;-52
2023/06/28 05:50:21;;;;;;;;;;;23.80;86.60;;;;;;5117691;28;19904;-54
2023/06/28 05:52:47;;;;;;;;;;;23.80;86.60;;;;;;5118043;28;19908;-52
2023/06/28 05:55:13;;;;;;;;;;;23.80;86.60;;;;;;5117906;28;19904;-54
2023/06/28 05:57:39;;;;;;;;;;;23.80;86.60;;;;;;5117499;28;19929;-53
2023/06/28 06:00:05;;;;;;;;;;;23.80;86.60;;;;;;5117831;28;19951;-55
2023/06/28 06:02:30;;;;;;;;;;;23.80;86.60;;;;;;5099613;28;19968;-51
2023/06/28 06:04:57;;;;;;;;;;;23.80;86.60;;;;;;5117592;28;19986;-53
2023/06/28 06:07:22;;;;;;;;;;;23.80;86.60;;;;;;5099337;28;19950;-50
2023/06/28 06:09:48;;;;;;;;;;;23.80;86.60;;;;;;5117584;28;19946;-52
2023/06/28 06:12:13;;;;;;;;;;;23.80;86.60;;;;;;5117371;28;19904;-51
2023/06/28 06:14:39;;;;;;;;;;;23.80;86.60;;;;;;5117475;28;20313;-54
2023/06/28 06:17:05;;;;;;;;;;;23.80;86.70;;;;;;5117349;28;20406;-49
2023/06/28 06:19:31;;;;;;;;;;;23.80;86.70;;;;;;5117474;28;20003;-52
2023/06/28 06:21:56;;;;;;;;;;;23.80;86.70;;;;;;5117162;28;19947;-50
2023/06/28 06:24:22;;;;;;;;;;;23.80;86.70;;;;;;5117298;28;19914;-53
2023/06/28 06:26:47;;;;;;;;;;;23.80;86.70;;;;;;5117201;28;19904;-53
2023/06/28 06:29:12;;;;;;;;;;;23.80;86.70;;;;;;5117143;28;19912;-52
2023/06/28 06:31:38;;;;;;;;;;;23.80;87.20;;;;;;5117753;28;19908;-51
2023/06/28 06:34:03;;;;;;;;;;;23.80;86.60;;;;;;5117500;28;20338;-52
2023/06/28 06:36:29;;;;;;;;;;;23.80;86.60;;;;;;5117069;28;20003;-49
2023/06/28 06:38:57;;;;;;;;;;;23.80;86.60;;;;;;5117358;28;20006;-53
2023/06/28 06:41:23;;;;;;;;;;;23.80;86.50;;;;;;5098956;28;19903;-52
2023/06/28 06:43:49;;;;;;;;;;;23.80;86.50;;;;;;5116962;28;19910;-53
2023/06/28 06:46:15;;;;;;;;;;;23.80;86.50;;;;;;5116986;28;19911;-52
2023/06/28 06:48:41;;;;;;;;;;;23.80;86.40;;;;;;5117222;28;19920;-50
2023/06/28 06:51:07;;;;;;;;;;;23.80;86.50;;;;;;5116729;28;20361;-54
2023/06/28 06:53:32;;;;;;;;;;;23.80;86.50;;;;;;5117129;28;19904;-53
2023/06/28 06:55:59;;;;;;;;;;;23.80;86.50;;;;;;5116804;28;19903;-52
2023/06/28 06:58:25;;;;;;;;;;;23.80;86.50;;;;;;5116913;28;20007;-53
2023/06/28 07:00:51;;;;;;;;;;;23.80;86.50;;;;;;5117324;28;19915;-54
2023/06/28 07:03:17;;;;;;;;;;;23.80;86.40;;;;;;5116978;28;19920;-51
2023/06/28 07:05:43;;;;;;;;;;;23.90;86.50;;;;;;5116625;28;20023;-50
2023/06/28 07:08:08;;;;;;;;;;;23.80;86.40;;;;;;5116418;28;19918;-49
2023/06/28 07:10:34;;;;;;;;;;;23.90;86.50;;;;;;5117113;28;19904;-49
2023/06/28 07:13:00;;;;;;;;;;;23.90;86.50;;;;;;5116729;28;20261;-51
2023/06/28 07:15:25;;;;;;;;;;;23.90;86.50;;;;;;5116246;28;19904;-50
2023/06/28 07:17:52;;;;;;;;;;;23.90;86.40;;;;;;5098370;28;20002;-53
2023/06/28 07:20:18;;;;;;;;;;;23.90;86.50;;;;;;5116559;28;19904;-51
2023/06/28 07:22:43;;;;;;;;;;;23.90;86.50;;;;;;5116522;28;19904;-50
2023/06/28 07:25:09;;;;;;;;;;;23.90;86.50;;;;;;5116435;28;20262;-49
2023/06/28 07:27:35;;;;;;;;;;;23.90;86.50;;;;;;5116383;28;19953;-51
2023/06/28 07:30:00;;;;;;;;;;;23.90;86.50;;;;;;5116361;28;19937;-51
2023/06/28 07:32:26;;;;;;;;;;;23.90;86.50;;;;;;5116093;28;19926;-53
2023/06/28 07:34:54;;;;;;;;;;;23.90;86.50;;;;;;5116250;28;19907;-51
2023/06/28 07:37:20;;;;;;;;;;;23.90;86.50;;;;;;5097849;28;20097;-52
2023/06/28 07:39:45;;;;;;;;;;;23.90;86.40;;;;;;5115792;28;19911;-52
2023/06/28 07:42:12;;;;;;;;;;;23.90;86.40;;;;;;5115965;28;19911;-51
2023/06/28 07:44:38;;;;;;;;;;;23.90;86.40;;;;;;5116161;28;19903;-51
2023/06/28 07:47:04;;;;;;;;;;;23.90;86.40;;;;;;5115769;28;19915;-48
2023/06/28 07:49:29;;;;;;;;;;;23.90;86.40;;;;;;5115494;28;19912;-49
2023/06/28 07:51:55;;;;;;;;;;;23.90;86.40;;;;;;5115879;28;19903;-49
2023/06/28 07:54:20;;;;;;;;;;;23.90;86.30;;;;;;5097430;28;19908;-53
2023/06/28 07:56:45;;;;;;;;;;;23.90;86.30;;;;;;5115162;28;20023;-49
2023/06/28 07:59:11;;;;;;;;;;;23.90;86.30;;;;;;5115551;28;20407;-50
2023/06/28 08:01:36;;;;;;;;;;;23.90;86.30;;;;;;5115310;28;20304;-50
2023/06/28 08:04:02;;;;;;;;;;;23.90;86.30;;;;;;5097502;28;19904;-53
2023/06/28 08:06:28;;;;;;;;;;;23.90;86.30;;;;;;5115275;28;19903;-53
2023/06/28 08:08:54;;;;;;;;;;;23.90;86.30;;;;;;5115481;28;19912;-50
2023/06/28 08:11:20;;;;;;;;;;;23.90;86.30;;;;;;5115164;28;19969;-49
2023/06/28 08:13:45;;;;;;;;;;;23.90;86.30;;;;;;5115810;28;19903;-53
2023/06/28 08:16:11;;;;;;;;;;;23.90;86.30;;;;;;5115182;28;19939;-52
2023/06/28 08:18:36;;;;;;;;;;;23.90;86.30;;;;;;5097265;28;19904;-53
2023/06/28 08:21:02;;;;;;;;;;;23.90;86.30;;;;;;5115470;28;19904;-50
2023/06/28 08:23:27;;;;;;;;;;;23.90;86.20;;;;;;5115071;28;19910;-50
2023/06/28 08:25:53;;;;;;;;;;;23.90;86.20;;;;;;5115192;28;19904;-50
2023/06/28 08:28:18;;;;;;;;;;;23.90;86.20;;;;;;5114853;28;19912;-48
2023/06/28 08:30:44;;;;;;;;;;;23.90;86.20;;;;;;5114876;28;19910;-49
2023/06/28 08:33:09;;;;;;;;;;;23.90;86.20;;;;;;5114807;28;20315;-49
2023/06/28 08:35:35;;;;;;;;;;;23.90;86.20;;;;;;5114991;28;19998;-52
2023/06/28 08:38:00;;;;;;;;;;;23.90;86.20;;;;;;5114537;28;19903;-52
2023/06/28 08:40:29;;;;;;;;;;;23.90;86.20;;;;;;5114516;28;19904;-49
2023/06/28 08:42:58;;;;;;;;;;;24.00;86.30;;;;;;5114601;28;20254;-48
2023/06/28 08:45:24;;;;;;;;;;;23.90;86.20;;;;;;5114455;28;19990;-49
2023/06/28 08:47:49;;;;;;;;;;;24.00;86.30;;;;;;5114792;28;19916;-52
2023/06/28 08:50:15;;;;;;;;;;;24.00;86.20;;;;;;5114610;28;19911;-51
2023/06/28 08:52:41;;;;;;;;;;;24.00;86.30;;;;;;5114365;28;19990;-48
2023/06/28 08:55:07;;;;;;;;;;;24.00;86.30;;;;;;5114761;28;19911;-50
2023/06/28 08:57:34;;;;;;;;;;;24.00;86.20;;;;;;5114817;28;20067;-50
2023/06/28 09:00:00;;;;;;;;;;;24.00;86.30;;;;;;5114584;28;20331;-51
2023/06/28 09:02:27;;;;;;;;;;;24.00;86.30;;;;;;5114613;28;19994;-50
2023/06/28 09:04:53;;;;;;;;;;;23.90;86.20;;;;;;5114742;28;20303;-48
2023/06/28 09:07:21;;;;;;;;;;;24.00;86.30;;;;;;5113940;28;19904;-49
2023/06/28 09:09:48;;;;;;;;;;;24.00;86.30;;;;;;5114255;28;19954;-48
2023/06/28 09:12:14;;;;;;;;;;;24.00;86.30;;;;;;5114496;28;19903;-51
2023/06/28 09:14:40;;;;;;;;;;;24.00;86.30;;;;;;5114221;28;19904;-51
2023/06/28 09:17:05;;;;;;;;;;;23.90;86.30;;;;;;5114578;28;19904;-50
2023/06/28 09:19:30;;;;;;;;;;;23.90;86.30;;;;;;5114228;28;19977;-50
2023/06/28 09:22:01;;;;;;;;;;;23.90;86.30;;;;;;5114526;28;19903;-50
2023/06/28 09:24:26;;;;;;;;;;;24.00;86.30;;;;;;5114135;28;19939;-51
2023/06/28 09:26:52;;;;;;;;;;;24.00;86.40;;;;;;5114218;28;20257;-51
2023/06/28 09:29:17;;;;;;;;;;;24.00;86.30;;;;;;5114367;28;19919;-47
2023/06/28 09:31:46;;;;;;;;;;;23.90;86.30;;;;;;5114161;28;19968;-50
2023/06/28 09:34:12;;;;;;;;;;;24.00;86.40;;;;;;5114041;28;19904;-52
2023/06/28 09:36:37;;;;;;;;;;;24.00;86.40;;;;;;5114240;28;20041;-48
2023/06/28 09:39:04;;;;;;;;;;;24.00;86.30;;;;;;5114111;28;19911;-51
2023/06/28 09:41:36;;;;;;;;;;;24.00;86.40;;;;;;5114371;28;20377;-53
2023/06/28 09:44:02;;;;;;;;;;;24.00;86.30;;;;;;5114213;28;19911;-52
2023/06/28 09:46:27;;;;;;;;;;;23.90;86.30;;;;;;5113720;28;19904;-49
2023/06/28 09:48:53;;;;;;;;;;;24.00;86.30;;;;;;5095737;28;19915;-52
2023/06/28 09:51:19;;;;;;;;;;;24.00;86.30;;;;;;5114028;28;19904;-51
2023/06/28 09:53:49;;;;;;;;;;;24.00;86.30;;;;;;5113764;28;19907;-50
2023/06/28 09:56:15;;;;;;;;;;;24.00;86.30;;;;;;5114005;28;19911;-52
2023/06/28 09:58:41;;;;;;;;;;;24.00;86.20;;;;;;5113875;28;20273;-49
2023/06/28 10:01:06;;;;;;;;;;;24.00;86.30;;;;;;5113775;28;19911;-53
2023/06/28 10:03:32;;;;;;;;;;;24.00;86.30;;;;;;5113596;28;19927;-49
2023/06/28 10:05:58;;;;;;;;;;;24.00;86.30;;;;;;5113712;28;19904;-53
2023/06/28 10:08:25;;;;;;;;;;;24.00;86.30;;;;;;5113992;28;20046;-52
2023/06/28 10:10:53;;;;;;;;;;;24.00;86.30;;;;;;5113680;28;19907;-51
2023/06/28 10:13:19;;;;;;;;;;;24.00;86.30;;;;;;5113866;28;19905;-50
2023/06/28 10:15:45;;;;;;;;;;;24.00;86.30;;;;;;5113671;28;20278;-50
2023/06/28 10:18:11;;;;;;;;;;;24.00;86.30;;;;;;5095609;28;19968;-52
2023/06/28 10:20:38;;;;;;;;;;;24.00;86.30;;;;;;5117279;28;20273;-49
2023/06/28 10:23:04;;;;;;;;;;;24.00;86.40;;;;;;5117418;28;19958;-52
2023/06/28 10:25:30;;;;;;;;;;;24.00;86.40;;;;;;5117448;28;19963;-49
2023/06/28 10:27:56;;;;;;;;;;;24.00;86.40;;;;;;5117246;28;20020;-52
2023/06/28 10:30:22;;;;;;;;;;;24.00;86.40;;;;;;5117418;28;19916;-51
2023/06/28 10:32:48;;;;;;;;;;;24.00;86.50;;;;;;5117242;28;19910;-49
2023/06/28 10:35:14;;;;;;;;;;;24.00;86.40;;;;;;5117524;28;19904;-51
2023/06/28 10:37:39;;;;;;;;;;;24.00;86.40;;;;;;5117058;28;19994;-52
2023/06/28 10:40:08;;;;;;;;;;;24.00;86.40;;;;;;5117312;28;19943;-50
2023/06/28 10:42:41;;;;;;;;;;;24.00;86.40;;;;;;5116962;28;20414;-50
2023/06/28 10:45:08;;;;;;;;;;;24.00;86.40;;;;;;5117255;28;19904;-52
2023/06/28 10:47:34;;;;;;;;;;;24.00;86.40;;;;;;5116905;28;19951;-49
2023/06/28 10:50:06;;;;;;;;;;;24.00;86.40;;;;;;5117145;28;19908;-49
2023/06/28 10:52:32;;;;;;;;;;;24.00;86.30;;;;;;5117405;28;19910;-53
2023/06/28 10:54:57;;;;;;;;;;;24.00;86.30;;;;;;5116996;28;19904;-48
2023/06/28 10:57:38;;;;;;;;;;;24.00;86.40;;;;;;5116914;28;20006;-49
2023/06/28 11:00:11;;;;;;;;;;;24.00;86.40;;;;;;5116996;28;20257;-51
2023/06/28 11:02:53;;;;;;;;;;;24.00;86.40;;;;;;5116650;28;19911;-52
2023/06/28 11:05:37;;;;;;;;;;;24.00;86.20;;;;;;5116763;28;19903;-50
2023/06/28 11:08:06;;;;;;;;;;;24.00;86.20;;;;;;5116611;28;19930;-53
2023/06/28 11:10:42;;;;;;;;;;;24.00;86.30;;;;;;5116583;28;20262;-52
2023/06/28 11:13:08;;;;;;;;;;;24.00;86.30;;;;;;5116670;28;19904;-51
2023/06/28 11:15:34;;;;;;;;;;;24.00;86.30;;;;;;5116486;28;19904;-49
2023/06/28 11:18:07;;;;;;;;;;;24.00;86.30;;;;;;5116159;28;19908;-54
2023/06/28 11:20:43;;;;;;;;;;;24.00;86.30;;;;;;5116487;28;19911;-54
2023/06/28 11:23:21;;;;;;;;;;;24.00;86.20;;;;;;5116435;28;20066;-48
2023/06/28 11:25:47;;;;;;;;;;;23.90;85.80;;;;;;5116268;28;19903;-53
2023/06/28 11:28:13;;;;;;;;;;;24.00;86.00;;;;;;5116670;28;20396;-50
2023/06/28 11:30:48;;;;;;;;;;;24.00;86.00;;;;;;5115406;28;19954;-50
2023/06/28 11:33:14;;;;;;;;;;;24.00;86.20;;;;;;5116536;28;19998;-53
2023/06/28 11:35:40;;;;;;;;;;;24.00;86.20;;;;;;5116449;28;20313;-51
2023/06/28 11:38:07;;;;;;;;;;;24.00;86.20;;;;;;5116181;28;19904;-54
2023/06/28 11:40:32;;;;;;;;;;;23.90;86.10;;;;;;5098051;28;19952;-51
2023/06/28 11:42:57;;;;;;;;;;;24.00;86.30;;;;;;5115749;28;20273;-51
2023/06/28 11:45:23;;;;;;;;;;;23.90;86.20;;;;;;5116282;28;19903;-53
2023/06/28 11:47:48;;;;;;;;;;;23.90;86.20;;;;;;5116125;28;19915;-50
2023/06/28 11:50:14;;;;;;;;;;;23.90;86.30;;;;;;5115996;28;19911;-49
2023/06/28 11:52:45;;;;;;;;;;;23.90;86.30;;;;;;5116132;28;19909;-50
2023/06/28 11:55:15;;;;;;;;;;;24.00;86.30;;;;;;5115429;28;20298;-53
2023/06/28 11:57:44;;;;;;;;;;;23.90;86.20;;;;;;5115568;28;19911;-51
2023/06/28 12:00:11;;;;;;;;;;;23.90;86.10;;;;;;5115304;28;19908;-53
2023/06/28 12:02:47;;;;;;;;;;;23.90;86.10;;;;;;5115806;28;19904;-51
2023/06/28 12:05:15;;;;;;;;;;;23.90;86.10;;;;;;5115830;28;19911;-52
2023/06/28 12:07:40;;;;;;;;;;;23.90;85.90;;;;;;5115712;28;19907;-51
2023/06/28 12:10:06;;;;;;;;;;;23.90;85.90;;;;;;5115754;28;19994;-50
2023/06/28 12:12:35;;;;;;;;;;;23.90;86.00;;;;;;5115753;28;19904;-50
2023/06/28 12:15:01;;;;;;;;;;;23.90;86.10;;;;;;5115411;28;20292;-50
2023/06/28 12:17:35;;;;;;;;;;;23.90;86.10;;;;;;5115470;28;19904;-51
2023/06/28 12:20:01;;;;;;;;;;;23.90;86.10;;;;;;5115050;28;19908;-51
2023/06/28 12:22:36;;;;;;;;;;;23.90;86.10;;;;;;5115189;28;20345;-50
2023/06/28 12:25:01;;;;;;;;;;;23.90;86.10;;;;;;5115354;28;19904;-49
2023/06/28 12:27:27;;;;;;;;;;;23.90;86.10;;;;;;5115128;28;19904;-48
2023/06/28 12:29:52;;;;;;;;;;;23.90;86.10;;;;;;5115173;28;19908;-50
2023/06/28 12:32:18;;;;;;;;;;;23.90;86.20;;;;;;5115020;28;19908;-51
2023/06/28 12:34:48;;;;;;;;;;;23.90;86.20;;;;;;5096908;28;19928;-50
2023/06/28 12:37:13;;;;;;;;;;;23.90;86.20;;;;;;5114827;28;19926;-53
2023/06/28 12:39:39;;;;;;;;;;;23.90;86.20;;;;;;5115258;28;20343;-53
2023/06/28 12:42:06;;;;;;;;;;;23.90;86.20;;;;;;5114678;28;19912;-50
2023/06/28 12:44:47;;;;;;;;;;;23.90;86.20;;;;;;5114628;28;19907;-51
2023/06/28 12:47:12;;;;;;;;;;;23.90;86.20;;;;;;5114941;28;19924;-49
2023/06/28 12:49:38;;;;;;;;;;;23.90;86.30;;;;;;5096582;28;20403;-52
2023/06/28 12:52:04;;;;;;;;;;;23.90;86.20;;;;;;5115007;28;19911;-53
2023/06/28 12:54:29;;;;;;;;;;;23.90;86.20;;;;;;5114467;28;19904;-52
2023/06/28 12:56:57;;;;;;;;;;;23.90;86.20;;;;;;5114256;28;19903;-52
2023/06/28 12:59:22;;;;;;;;;;;23.90;86.20;;;;;;5114735;28;19911;-49
2023/06/28 13:01:48;;;;;;;;;;;23.90;86.20;;;;;;5114584;28;20284;-48
2023/06/28 13:04:13;;;;;;;;;;;23.90;86.10;;;;;;5114632;28;19904;-51
2023/06/28 13:06:39;;;;;;;;;;;23.90;86.10;;;;;;5114505;28;19939;-51
2023/06/28 13:09:04;;;;;;;;;;;23.90;86.10;;;;;;5114598;28;20334;-49
2023/06/28 13:11:31;;;;;;;;;;;23.90;86.60;;;;;;5114426;28;19911;-50
2023/06/28 13:13:57;;;;;;;;;;;23.90;86.10;;;;;;5114447;28;19904;-49
2023/06/28 13:16:23;;;;;;;;;;;23.90;86.10;;;;;;5114364;28;20293;-50
2023/06/28 13:18:48;;;;;;;;;;;23.90;86.00;;;;;;5114704;28;19904;-51
2023/06/28 13:21:15;;;;;;;;;;;23.90;86.00;;;;;;5114540;28;19961;-52
2023/06/28 13:23:41;;;;;;;;;;;23.90;86.00;;;;;;5114421;28;19908;-51
2023/06/28 13:26:06;;;;;;;;;;;23.90;86.00;;;;;;5114507;28;19911;-52
2023/06/28 13:28:31;;;;;;;;;;;23.90;86.00;;;;;;5114045;28;19908;-53
2023/06/28 13:30:57;;;;;;;;;;;23.90;86.00;;;;;;5114008;28;19948;-52
2023/06/28 13:33:22;;;;;;;;;;;23.90;86.10;;;;;;5114576;28;19904;-50
2023/06/28 13:35:48;;;;;;;;;;;23.90;86.10;;;;;;5114179;28;19904;-54
2023/06/28 13:38:14;;;;;;;;;;;23.90;86.10;;;;;;5113908;28;20307;-50
2023/06/28 13:40:39;;;;;;;;;;;23.90;86.10;;;;;;5114177;28;19957;-51
2023/06/28 13:43:05;;;;;;;;;;;23.90;86.10;;;;;;5113991;28;20358;-53
2023/06/28 13:45:30;;;;;;;;;;;23.90;86.10;;;;;;5114205;28;19907;-54
2023/06/28 13:47:56;;;;;;;;;;;23.90;86.10;;;;;;5113889;28;19974;-50
2023/06/28 13:50:21;;;;;;;;;;;23.90;86.10;;;;;;5114068;28;19915;-50
2023/06/28 13:52:47;;;;;;;;;;;23.90;86.00;;;;;;5095633;28;19904;-54
2023/06/28 13:55:12;;;;;;;;;;;23.90;86.00;;;;;;5117266;28;19904;-52
2023/06/28 13:57:38;;;;;;;;;;;23.90;86.10;;;;;;5118219;28;19960;-48
2023/06/28 14:00:04;;;;;;;;;;;23.90;86.00;;;;;;5118142;28;20006;-48
2023/06/28 14:02:30;;;;;;;;;;;23.90;86.00;;;;;;5118084;28;19911;-53
2023/06/28 14:04:55;;;;;;;;;;;23.90;86.00;;;;;;5117628;28;19903;-49
2023/06/28 14:07:21;;;;;;;;;;;23.90;86.00;;;;;;5117721;28;20269;-51
2023/06/28 14:09:46;;;;;;;;;;;23.90;85.90;;;;;;5099544;28;19931;-51